createdAt,value
2023-02-22T00:01:58.889Z,94924.02
2023-02-22T00:04:25.228Z,94928.81
2023-02-22T00:06:51.599Z,94930.09
2023-02-22T00:09:17.937Z,94930.09
2023-02-22T00:11:44.321Z,94928.48
2023-02-22T00:14:12.670Z,94925.55
2023-02-22T00:16:37.098Z,94926.48
2023-02-22T00:19:03.442Z,94929.52
2023-02-22T00:21:29.854Z,94927.91
2023-02-22T00:23:56.230Z,94932.23
2023-02-22T00:26:22.629Z,94927.55
2023-02-22T00:28:48.958Z,94921.23
2023-02-22T00:31:15.772Z,94928.61
2023-02-22T00:33:41.695Z,94921.70
2023-02-22T00:38:34.237Z,94915.73
2023-02-22T00:41:00.629Z,94914.08
2023-02-22T00:43:26.966Z,94913.40
2023-02-22T00:45:53.383Z,94906.95
2023-02-22T00:48:19.745Z,94906.95
2023-02-22T00:50:46.113Z,94900.98
2023-02-22T00:53:12.456Z,94894.65
2023-02-22T00:55:38.878Z,94898.19
2023-02-22T00:58:05.249Z,94894.78
2023-02-22T01:00:31.625Z,94895.25
2023-02-22T01:02:58.024Z,94895.72
2023-02-22T01:05:24.432Z,94893.60
2023-02-22T01:07:50.774Z,94893.60
2023-02-22T01:10:17.168Z,94879.11
2023-02-22T01:12:43.514Z,94887.30
2023-02-22T01:15:09.888Z,94882.26
2023-02-22T01:17:36.316Z,94875.82
2023-02-22T01:20:02.717Z,94875.49
2023-02-22T01:22:29.058Z,94872.42
2023-02-22T01:24:55.456Z,94878.53
2023-02-22T01:27:21.815Z,94871.63
2023-02-22T01:29:48.252Z,94870.09
2023-02-22T01:32:14.680Z,94869.63
2023-02-22T01:34:41.014Z,94873.48
2023-02-22T01:37:07.348Z,94868.80
2023-02-22T01:39:33.742Z,94868.80
2023-02-22T01:42:01.037Z,94868.80
2023-02-22T01:44:26.472Z,94864.25
2023-02-22T01:46:52.847Z,94865.18
2023-02-22T01:49:20.415Z,94870.80
2023-02-22T01:51:45.574Z,94870.01
2023-02-22T01:54:11.962Z,94873.51
2023-02-22T01:56:38.353Z,94876.91
2023-02-22T01:59:04.702Z,94875.95
2023-02-22T02:01:31.101Z,94876.09
2023-02-22T02:03:57.487Z,94874.11
2023-02-22T02:06:23.812Z,94875.27
2023-02-22T02:08:50.227Z,94868.14
2023-02-22T02:11:16.753Z,94868.25
2023-02-22T02:13:42.981Z,94866.95
2023-02-22T02:16:09.296Z,94868.25
2023-02-22T02:18:35.706Z,94872.57
2023-02-22T02:21:02.044Z,94874.82
2023-02-22T02:23:28.426Z,94874.69
2023-02-22T02:25:54.771Z,94872.71
2023-02-22T02:28:21.149Z,94874.56
2023-02-22T02:30:47.500Z,94875.86
2023-02-22T02:33:13.897Z,94883.48
2023-02-22T02:35:40.266Z,94882.42
2023-02-22T02:38:06.653Z,94889.23
2023-02-22T02:40:33.029Z,94886.75
2023-02-22T02:42:59.380Z,94883.03
2023-02-22T02:45:25.741Z,94892.73
2023-02-22T02:47:52.143Z,94891.08
2023-02-22T02:50:18.485Z,94898.48
2023-02-22T02:52:44.868Z,94895.55
2023-02-22T02:55:11.259Z,94900.23
2023-02-22T02:57:37.629Z,94897.77
2023-02-22T03:00:03.977Z,94899.41
2023-02-22T03:02:30.371Z,94899.98
2023-02-22T03:04:56.697Z,94902.33
2023-02-22T03:07:23.126Z,94901.04
2023-02-22T03:09:50.673Z,94903.39
2023-02-22T03:12:15.831Z,94904.31
2023-02-22T03:14:43.124Z,94897.55
2023-02-22T03:17:08.560Z,94906.20
2023-02-22T03:19:34.904Z,94900.59
2023-02-22T03:22:01.289Z,94898.12
2023-02-22T03:24:27.630Z,94891.36
2023-02-22T03:26:54.024Z,94887.95
2023-02-22T03:29:20.358Z,94896.61
2023-02-22T03:31:46.745Z,94897.80
2023-02-22T03:34:13.153Z,94903.27
2023-02-22T03:36:41.489Z,94902.94
2023-02-22T03:39:05.885Z,94902.12
2023-02-22T03:41:32.321Z,94898.25
2023-02-22T03:43:58.660Z,94900.70
2023-02-22T03:46:25.088Z,94902.94
2023-02-22T03:48:51.407Z,94894.86
2023-02-22T03:51:18.239Z,94896.97
2023-02-22T03:53:44.328Z,94895.45
2023-02-22T03:56:10.667Z,94895.45
2023-02-22T03:58:37.091Z,94896.03
2023-02-22T04:01:03.467Z,94896.74
2023-02-22T04:03:29.801Z,94896.48
2023-02-22T04:05:56.183Z,94887.62
2023-02-22T04:08:22.529Z,94891.12
2023-02-22T04:10:48.925Z,94890.66
2023-02-22T04:13:15.267Z,94887.16
2023-02-22T04:15:41.720Z,94886.33
2023-02-22T04:18:08.091Z,94888.64
2023-02-22T04:20:34.431Z,94891.58
2023-02-22T04:23:00.817Z,94896.73
2023-02-22T04:25:27.152Z,94904.55
2023-02-22T04:27:53.544Z,94898.58
2023-02-22T04:30:19.952Z,94901.98
2023-02-22T04:32:46.321Z,94905.48
2023-02-22T04:35:12.666Z,94907.02
2023-02-22T04:37:39.043Z,94908.31
2023-02-22T04:40:05.387Z,94902.70
2023-02-22T04:42:31.800Z,94903.52
2023-02-22T04:44:58.142Z,94911.83
2023-02-22T04:47:24.530Z,94916.16
2023-02-22T04:49:50.874Z,94909.49
2023-02-22T04:52:17.274Z,94908.89
2023-02-22T04:54:43.654Z,94906.45
2023-02-22T04:57:10.033Z,94907.61
2023-02-22T04:59:36.377Z,94905.63
2023-02-22T05:02:02.827Z,94903.88
2023-02-22T05:04:29.205Z,94909.03
2023-02-22T05:06:56.485Z,94907.14
2023-02-22T05:09:21.887Z,94905.86
2023-02-22T05:11:51.265Z,94905.50
2023-02-22T05:14:17.603Z,94912.76
2023-02-22T05:16:44.044Z,94914.51
2023-02-22T05:19:10.362Z,94922.48
2023-02-22T05:21:36.787Z,94919.55
2023-02-22T05:24:03.133Z,94919.09
2023-02-22T05:26:29.516Z,94914.99
2023-02-22T05:28:55.881Z,94925.16
2023-02-22T05:31:22.439Z,94934.16
2023-02-22T05:33:48.671Z,94931.59
2023-02-22T05:36:15.048Z,94934.88
2023-02-22T05:38:41.391Z,94937.56
2023-02-22T05:41:07.807Z,94941.65
2023-02-22T05:43:34.135Z,94944.58
2023-02-22T05:46:00.518Z,94952.20
2023-02-22T05:48:26.886Z,94953.95
2023-02-22T05:50:53.271Z,94954.28
2023-02-22T05:53:19.621Z,94960.49
2023-02-22T05:55:46.615Z,94952.20
2023-02-22T05:58:12.376Z,94958.97
2023-02-22T06:00:38.771Z,94962.50
2023-02-22T06:03:05.112Z,94956.86
2023-02-22T06:05:31.548Z,94958.50
2023-02-22T06:07:57.837Z,94964.02
2023-02-22T06:10:24.257Z,94965.30
2023-02-22T06:12:50.607Z,94961.91
2023-02-22T06:15:16.975Z,94955.94
2023-02-22T06:17:43.336Z,94957.91
2023-02-22T06:20:09.752Z,94957.45
2023-02-22T06:22:36.090Z,94958.41
2023-02-22T06:25:02.477Z,94950.32
2023-02-22T06:27:28.814Z,94952.43
2023-02-22T06:29:56.172Z,94944.70
2023-02-22T06:32:21.619Z,94947.61
2023-02-22T06:34:47.980Z,94946.00
2023-02-22T06:37:14.319Z,94948.90
2023-02-22T06:39:41.984Z,94956.98
2023-02-22T06:42:07.116Z,94956.42
2023-02-22T06:44:33.508Z,94949.62
2023-02-22T06:46:59.873Z,94953.70
2023-02-22T06:49:26.249Z,94945.75
2023-02-22T06:51:52.587Z,94945.75
2023-02-22T06:54:18.977Z,94951.81
2023-02-22T06:56:45.352Z,94958.86
2023-02-22T06:59:11.792Z,94956.50
2023-02-22T07:01:38.134Z,94952.41
2023-02-22T07:04:04.598Z,94955.22
2023-02-22T07:06:30.937Z,94954.89
2023-02-22T07:08:57.332Z,94957.23
2023-02-22T07:11:23.758Z,94958.05
2023-02-22T07:13:50.147Z,94965.52
2023-02-22T07:16:16.562Z,94960.04
2023-02-22T07:18:42.882Z,94959.56
2023-02-22T07:21:09.225Z,94956.27
2023-02-22T07:23:35.599Z,94960.94
2023-02-22T07:26:01.994Z,94971.24
2023-02-22T07:28:28.456Z,94967.17
2023-02-22T07:30:54.808Z,94974.66
2023-02-22T07:33:21.207Z,94978.98
2023-02-22T07:35:47.563Z,94969.50
2023-02-22T07:38:13.984Z,94969.50
2023-02-22T07:40:40.360Z,94962.36
2023-02-22T07:43:07.996Z,94959.06
2023-02-22T07:45:33.149Z,94960.94
2023-02-22T07:47:59.574Z,94958.36
2023-02-22T07:50:25.899Z,94960.47
2023-02-22T07:52:52.295Z,94958.25
2023-02-22T07:55:18.629Z,94949.46
2023-02-22T07:57:45.038Z,94953.09
2023-02-22T08:00:11.381Z,94945.00
2023-02-22T08:02:37.814Z,94954.95
2023-02-22T08:05:04.149Z,94943.93
2023-02-22T08:07:30.546Z,94944.77
2023-02-22T08:09:56.889Z,94942.19
2023-02-22T08:12:23.312Z,94943.80
2023-02-22T08:14:49.691Z,94944.62
2023-02-22T08:17:16.135Z,94943.70
2023-02-22T08:19:42.440Z,94946.38
2023-02-22T08:22:08.832Z,94944.62
2023-02-22T08:24:35.188Z,94940.87
2023-02-22T08:27:01.573Z,94941.09
2023-02-22T08:29:27.921Z,94937.23
2023-02-22T08:31:54.403Z,94938.74
2023-02-22T08:34:20.660Z,94932.77
2023-02-22T08:36:47.108Z,94936.98
2023-02-22T08:39:13.454Z,94938.27
2023-02-22T08:41:39.831Z,94932.09
2023-02-22T08:44:06.170Z,94934.20
2023-02-22T08:46:32.563Z,94931.84
2023-02-22T08:48:58.908Z,94935.81
2023-02-22T08:51:27.678Z,94928.44
2023-02-22T08:53:53.847Z,94901.87
2023-02-22T08:56:20.264Z,94926.91
2023-02-22T08:58:46.669Z,94927.48
2023-02-22T09:01:15.516Z,94918.56
2023-02-22T09:03:39.437Z,94918.10
2023-02-22T09:06:05.822Z,94918.56
2023-02-22T09:08:32.146Z,94917.50
2023-02-22T09:10:58.542Z,94919.75
2023-02-22T09:16:10.241Z,94913.05
2023-02-22T09:18:43.946Z,94909.41
2023-02-22T09:21:02.946Z,94915.03
2023-02-22T09:23:29.315Z,94907.87
2023-02-22T09:25:55.709Z,94910.91
2023-02-22T09:28:22.097Z,94906.58
2023-02-22T09:30:48.551Z,94906.72
2023-02-22T09:33:14.912Z,94902.10
2023-02-22T09:35:41.227Z,94901.53
2023-02-22T09:38:07.571Z,94904.93
2023-02-22T09:40:33.992Z,94891.57
2023-02-22T09:43:00.327Z,94888.17
2023-02-22T09:45:26.864Z,94890.97
2023-02-22T09:47:54.879Z,94887.45
2023-02-22T09:50:19.502Z,94891.64
2023-02-22T09:52:45.904Z,94892.94
2023-02-22T09:55:12.377Z,94888.81
2023-02-22T09:57:38.721Z,94889.17
2023-02-22T10:00:05.114Z,94877.92
2023-02-22T10:02:31.460Z,94872.05
2023-02-22T10:04:57.846Z,94876.63
2023-02-22T10:07:24.226Z,94868.19
2023-02-22T10:09:50.665Z,94863.13
2023-02-22T10:12:17.022Z,94863.34
2023-02-22T10:14:44.071Z,94857.72
2023-02-22T10:17:09.771Z,94850.34
2023-02-22T10:19:36.167Z,94849.73
2023-02-22T10:22:02.547Z,94845.39
2023-02-22T10:24:28.924Z,94840.13
2023-02-22T10:26:55.334Z,94834.14
2023-02-22T10:29:21.762Z,94826.27
2023-02-22T10:31:48.208Z,94824.97
2023-02-22T10:34:14.503Z,94822.64
2023-02-22T10:36:40.849Z,94819.45
2023-02-22T10:39:07.267Z,94814.03
2023-02-22T10:41:33.618Z,94812.74
2023-02-22T10:44:00.006Z,94806.03
2023-02-22T10:46:26.358Z,94801.23
2023-02-22T10:48:52.749Z,94795.10
2023-02-22T10:51:19.131Z,94797.92
2023-02-22T10:53:45.531Z,94792.27
2023-02-22T10:56:11.881Z,94789.31
2023-02-22T10:58:38.279Z,94777.84
2023-02-22T11:01:05.641Z,94778.31
2023-02-22T11:03:31.268Z,94775.73
2023-02-22T11:05:57.588Z,94783.68
2023-02-22T11:08:23.984Z,94771.45
2023-02-22T11:10:50.328Z,94774.27
2023-02-22T11:13:16.725Z,94772.20
2023-02-22T11:15:43.072Z,94764.66
2023-02-22T11:18:09.456Z,94770.17
2023-02-22T11:20:35.814Z,94768.12
2023-02-22T11:23:02.213Z,94761.20
2023-02-22T11:25:28.574Z,94760.27
2023-02-22T11:27:54.996Z,94756.27
2023-02-22T11:30:21.352Z,94756.02
2023-02-22T11:32:47.728Z,94747.77
2023-02-22T11:35:14.080Z,94749.06
2023-02-22T11:37:40.515Z,94748.13
2023-02-22T11:40:06.861Z,94742.34
2023-02-22T11:42:33.220Z,94741.05
2023-02-22T11:44:59.572Z,94734.13
2023-02-22T11:47:25.956Z,94737.27
2023-02-22T11:49:52.307Z,94736.33
2023-02-22T11:52:18.685Z,94735.23
2023-02-22T11:54:45.052Z,94734.77
2023-02-22T11:57:11.465Z,94730.43
2023-02-22T11:59:37.776Z,94721.33
2023-02-22T12:02:04.168Z,94723.64
2023-02-22T12:04:30.611Z,94717.11
2023-02-22T12:06:56.912Z,94717.25
2023-02-22T12:09:23.278Z,94713.94
2023-02-22T12:11:49.677Z,94716.25
2023-02-22T12:14:16.070Z,94711.22
2023-02-22T12:16:42.443Z,94708.59
2023-02-22T12:19:08.804Z,94709.26
2023-02-22T12:21:35.188Z,94711.92
2023-02-22T12:24:01.551Z,94701.23
2023-02-22T12:26:27.932Z,94698.39
2023-02-22T12:28:54.301Z,94694.44
2023-02-22T12:31:20.732Z,94690.64
2023-02-22T12:33:47.088Z,94687.86
2023-02-22T12:36:13.441Z,94684.66
2023-02-22T12:38:39.786Z,94688.41
2023-02-22T12:41:06.182Z,94681.83
2023-02-22T12:43:32.538Z,94681.55
2023-02-22T12:45:59.058Z,94678.50
2023-02-22T12:48:25.399Z,94676.73
2023-02-22T12:50:51.764Z,94681.08
2023-02-22T12:53:18.127Z,94677.09
2023-02-22T12:55:44.524Z,94666.13
2023-02-22T12:58:10.873Z,94672.94
2023-02-22T13:00:37.276Z,94664.92
2023-02-22T13:03:03.617Z,94663.63
2023-02-22T13:05:30.063Z,94658.70
2023-02-22T13:07:56.416Z,94669.81
2023-02-22T13:10:22.797Z,94660.65
2023-02-22T13:12:51.379Z,94663.23
2023-02-22T13:15:15.544Z,94662.61
2023-02-22T13:17:41.891Z,94659.67
2023-02-22T13:20:08.312Z,94657.79
2023-02-22T13:22:34.688Z,94655.95
2023-02-22T13:25:01.092Z,94660.02
2023-02-22T13:27:27.439Z,94652.27
2023-02-22T13:29:53.834Z,94652.27
2023-02-22T13:32:20.265Z,94645.66
2023-02-22T13:34:46.635Z,94645.66
2023-02-22T13:37:12.962Z,94649.41
2023-02-22T13:39:39.334Z,94652.34
2023-02-22T13:42:05.683Z,94651.84
2023-02-22T13:44:32.089Z,94652.00
2023-02-22T13:46:58.430Z,94650.70
2023-02-22T13:49:25.771Z,94648.05
2023-02-22T13:51:51.172Z,94647.45
2023-02-22T13:54:17.610Z,94650.08
2023-02-22T13:56:43.957Z,94651.80
2023-02-22T13:59:10.473Z,94647.84
2023-02-22T14:01:36.783Z,94650.02
2023-02-22T14:04:03.185Z,94652.89
2023-02-22T14:06:29.531Z,94638.62
2023-02-22T14:08:55.949Z,94638.62
2023-02-22T14:11:22.298Z,94639.46
2023-02-22T14:13:48.752Z,94643.02
2023-02-22T14:16:15.385Z,94644.23
2023-02-22T14:18:41.514Z,94648.03
2023-02-22T14:21:07.856Z,94644.64
2023-02-22T14:23:34.256Z,94628.33
2023-02-22T14:26:00.634Z,94648.78
2023-02-22T14:28:27.027Z,94643.42
2023-02-22T14:30:53.373Z,94646.48
2023-02-22T14:33:19.772Z,94648.51
2023-02-22T14:35:50.151Z,94644.79
2023-02-22T14:38:12.510Z,94639.47
2023-02-22T14:40:38.862Z,94643.22
2023-02-22T14:43:05.221Z,94643.34
2023-02-22T14:45:31.631Z,94641.78
2023-02-22T14:47:57.940Z,94641.78
2023-02-22T14:50:24.327Z,94634.10
2023-02-22T14:52:50.715Z,94623.94
2023-02-22T14:55:17.126Z,94623.94
2023-02-22T14:57:43.464Z,94634.03
2023-02-22T15:00:09.858Z,94617.61
2023-02-22T15:02:36.245Z,94617.61
2023-02-22T15:05:02.669Z,94634.73
2023-02-22T15:07:28.967Z,94633.75
2023-02-22T15:09:55.347Z,94633.75
2023-02-22T15:12:21.697Z,94634.38
2023-02-22T15:14:48.086Z,94631.25
2023-02-22T15:17:14.424Z,94631.25
2023-02-22T15:19:40.830Z,94629.48
2023-02-22T15:22:07.173Z,94636.70
2023-02-22T15:24:33.569Z,94628.83
2023-02-22T15:27:02.636Z,94632.75
2023-02-22T15:29:26.390Z,94639.08
2023-02-22T15:31:52.657Z,94633.92
2023-02-22T15:34:19.042Z,94639.08
2023-02-22T15:36:45.389Z,94639.08
2023-02-22T15:39:11.795Z,94633.84
2023-02-22T15:41:38.139Z,94633.84
2023-02-22T15:44:17.560Z,94636.34
2023-02-22T15:46:30.916Z,94636.70
2023-02-22T15:48:57.320Z,94636.89
2023-02-22T15:51:23.649Z,94643.03
2023-02-22T15:53:50.077Z,94646.41
2023-02-22T15:56:16.422Z,94634.52
2023-02-22T15:58:42.820Z,94646.09
2023-02-22T16:01:10.152Z,94639.95
2023-02-22T16:03:35.536Z,94649.48
2023-02-22T16:06:01.872Z,94648.19
2023-02-22T16:08:28.271Z,94651.84
2023-02-22T16:10:54.622Z,94649.95
2023-02-22T16:13:31.109Z,94638.19
2023-02-22T16:15:47.348Z,94638.19
2023-02-22T16:18:13.781Z,94664.63
2023-02-22T16:20:40.082Z,94671.90
2023-02-22T16:23:06.470Z,94670.26
2023-02-22T16:25:32.883Z,94671.55
2023-02-22T16:27:59.355Z,94672.44
2023-02-22T16:30:26.062Z,94677.61
2023-02-22T16:32:52.101Z,94671.94
2023-02-22T16:35:18.561Z,94676.05
2023-02-22T16:37:44.853Z,94676.31
2023-02-22T16:40:11.203Z,94680.93
2023-02-22T16:42:37.592Z,94679.48
2023-02-22T16:45:03.927Z,94679.20
2023-02-22T16:47:30.324Z,94678.94
2023-02-22T16:49:56.770Z,94665.09
2023-02-22T16:52:23.045Z,94665.09
2023-02-22T16:54:49.397Z,94671.53
2023-02-22T16:57:15.758Z,94668.95
2023-02-22T16:59:42.105Z,94675.49
2023-02-22T17:02:08.479Z,94688.52
2023-02-22T17:04:34.815Z,94694.30
2023-02-22T17:07:02.576Z,94696.14
2023-02-22T17:09:27.535Z,94696.26
2023-02-22T17:11:53.916Z,94698.92
2023-02-22T17:14:20.247Z,94704.20
2023-02-22T17:16:46.637Z,94706.52
2023-02-22T17:19:12.981Z,94706.52
2023-02-22T17:21:39.394Z,94709.05
2023-02-22T17:24:05.732Z,94680.77
2023-02-22T17:26:32.198Z,94711.00
2023-02-22T17:28:58.533Z,94711.00
2023-02-22T17:31:24.957Z,94714.41
2023-02-22T17:33:51.330Z,94719.22
2023-02-22T17:36:17.908Z,94705.83
2023-02-22T17:38:43.975Z,94705.83
2023-02-22T17:41:10.360Z,94720.51
2023-02-22T17:43:36.702Z,94721.77
2023-02-22T17:46:03.117Z,94720.71
2023-02-22T17:48:29.459Z,94725.28
2023-02-22T17:50:55.832Z,94724.11
2023-02-22T17:53:22.182Z,94728.80
2023-02-22T17:55:48.586Z,94716.23
2023-02-22T17:58:14.996Z,94716.23
2023-02-22T18:00:41.341Z,94722.53
2023-02-22T18:03:07.754Z,94722.53
2023-02-22T18:05:34.123Z,94726.49
2023-02-22T18:08:00.454Z,94730.98
2023-02-22T18:10:26.847Z,94727.11
2023-02-22T18:12:53.198Z,94730.71
2023-02-22T18:15:19.579Z,94727.43
2023-02-22T18:17:45.911Z,94712.08
2023-02-22T18:20:12.301Z,94712.08
2023-02-22T18:22:38.650Z,94715.06
2023-02-22T18:25:05.049Z,94728.98
2023-02-22T18:27:31.371Z,94731.10
2023-02-22T18:29:57.762Z,94713.37
2023-02-22T18:32:24.156Z,94726.41
2023-02-22T18:34:50.478Z,94726.41
2023-02-22T18:37:16.814Z,94713.84
2023-02-22T18:39:43.191Z,94713.84
2023-02-22T18:42:09.537Z,94724.09
2023-02-22T18:44:35.932Z,94726.36
2023-02-22T18:47:02.272Z,94726.00
2023-02-22T18:49:28.735Z,94722.48
2023-02-22T18:51:55.071Z,94724.36
2023-02-22T18:54:21.519Z,94724.36
2023-02-22T18:56:47.844Z,94723.42
2023-02-22T18:59:14.221Z,94707.45
2023-02-22T19:01:40.665Z,94707.45
2023-02-22T19:04:06.979Z,94718.37
2023-02-22T19:06:33.317Z,94720.49
2023-02-22T19:08:59.702Z,94722.60
2023-02-22T19:11:26.039Z,94720.84
2023-02-22T19:13:52.459Z,94715.19
2023-02-22T19:16:19.199Z,94730.14
2023-02-22T19:18:45.269Z,94730.14
2023-02-22T19:21:11.609Z,94742.11
2023-02-22T19:23:39.766Z,94732.72
2023-02-22T19:26:04.338Z,94732.72
2023-02-22T19:28:30.712Z,94745.62
2023-02-22T19:30:57.086Z,94745.62
2023-02-22T19:33:23.440Z,94748.00
2023-02-22T19:35:49.796Z,94750.91
2023-02-22T19:38:16.153Z,94750.91
2023-02-22T19:40:42.501Z,94745.39
2023-02-22T19:43:08.883Z,94745.39
2023-02-22T19:45:35.412Z,94760.55
2023-02-22T19:48:01.748Z,94736.19
2023-02-22T19:50:28.091Z,94736.19
2023-02-22T19:52:54.478Z,94764.22
2023-02-22T19:55:20.810Z,94765.52
2023-02-22T19:57:47.191Z,94765.52
2023-02-22T20:00:13.531Z,94765.16
2023-02-22T20:02:39.938Z,94771.76
2023-02-22T20:05:06.380Z,94765.86
2023-02-22T20:07:32.766Z,94789.27
2023-02-22T20:09:59.103Z,94789.27
2023-02-22T20:12:25.493Z,94784.36
2023-02-22T20:14:51.831Z,94789.52
2023-02-22T20:17:18.222Z,94791.75
2023-02-22T20:19:44.566Z,94793.04
2023-02-22T20:22:10.957Z,94788.14
2023-02-22T20:24:37.298Z,94786.61
2023-02-22T20:27:03.697Z,94789.66
2023-02-22T20:29:30.078Z,94785.91
2023-02-22T20:31:56.608Z,94792.83
2023-02-22T20:34:26.016Z,94792.83
2023-02-22T20:36:49.195Z,94793.44
2023-02-22T20:39:15.526Z,94793.44
2023-02-22T20:41:41.957Z,94796.13
2023-02-22T20:44:08.353Z,94796.63
2023-02-22T20:46:34.745Z,94795.10
2023-02-22T20:49:01.129Z,94792.67
2023-02-22T20:51:27.488Z,94790.20
2023-02-22T20:53:53.897Z,94790.20
2023-02-22T20:56:20.274Z,94788.70
2023-02-22T20:58:46.619Z,94790.46
2023-02-22T21:01:13.007Z,94795.97
2023-02-22T21:03:39.345Z,94792.72
2023-02-22T21:06:05.725Z,94792.72
2023-02-22T21:08:32.064Z,94793.66
2023-02-22T21:10:58.444Z,94789.58
2023-02-22T21:13:24.782Z,94789.58
2023-02-22T21:15:52.693Z,94786.64
2023-02-22T21:18:17.513Z,94789.22
2023-02-22T21:20:43.896Z,94790.87
2023-02-22T21:23:10.355Z,94795.67
2023-02-22T21:25:36.700Z,94789.34
2023-02-22T21:28:03.032Z,94795.46
2023-02-22T21:30:29.452Z,94790.30
2023-02-22T21:32:55.901Z,94789.48
2023-02-22T21:35:22.308Z,94792.99
2023-02-22T21:37:48.650Z,94787.52
2023-02-22T21:40:15.041Z,94791.85
2023-02-22T21:42:41.391Z,94793.96
2023-02-22T21:45:07.834Z,94791.03
2023-02-22T21:47:34.163Z,94785.66
2023-02-22T21:50:00.543Z,94783.55
2023-02-22T21:52:26.888Z,94788.35
2023-02-22T21:54:53.273Z,94780.27
2023-02-22T21:57:19.624Z,94778.19
2023-02-22T21:59:45.998Z,94772.67
2023-02-22T22:02:12.375Z,94777.01
2023-02-22T22:04:38.745Z,94779.23
2023-02-22T22:07:05.118Z,94780.05
2023-02-22T22:09:31.506Z,94779.23
2023-02-22T22:11:57.866Z,94781.95
2023-02-22T22:14:24.259Z,94778.09
2023-02-22T22:16:50.597Z,94782.89
2023-02-22T22:19:16.977Z,94780.31
2023-02-22T22:21:43.325Z,94779.95
2023-02-22T22:24:09.703Z,94783.83
2023-02-22T22:26:36.075Z,94783.50
2023-02-22T22:29:02.552Z,94782.68
2023-02-22T22:31:29.046Z,94779.75
2023-02-22T22:33:55.344Z,94787.02
2023-02-22T22:36:21.623Z,94784.23
2023-02-22T22:38:48.016Z,94785.16
2023-02-22T22:41:14.362Z,94783.41
2023-02-22T22:43:40.739Z,94783.05
2023-02-22T22:46:07.183Z,94778.50
2023-02-22T22:48:33.455Z,94783.52
2023-02-22T22:50:59.800Z,94786.23
2023-02-22T22:53:26.175Z,94785.06
2023-02-22T22:55:52.518Z,94786.34
2023-02-22T22:58:18.906Z,94789.42
2023-02-22T23:00:45.245Z,94786.60
2023-02-22T23:03:11.727Z,94788.25
2023-02-22T23:05:37.981Z,94792.94
2023-02-22T23:08:04.360Z,94793.41
2023-02-22T23:10:30.703Z,94781.95
2023-02-22T23:12:57.094Z,94782.73
2023-02-22T23:15:23.432Z,94774.79
2023-02-22T23:17:51.033Z,94783.81
2023-02-22T23:20:16.143Z,94782.17
2023-02-22T23:22:42.543Z,94777.52
2023-02-22T23:25:08.907Z,94778.66
2023-02-22T23:27:35.363Z,94776.34
2023-02-22T23:30:01.739Z,94786.65
2023-02-22T23:32:28.203Z,94782.92
2023-02-22T23:34:54.476Z,94786.29
2023-02-22T23:37:20.934Z,94788.08
2023-02-22T23:39:47.198Z,94787.72
2023-02-22T23:42:13.591Z,94786.08
2023-02-22T23:44:39.922Z,94788.30
2023-02-22T23:47:06.305Z,94785.72
2023-02-22T23:49:32.662Z,94783.03
2023-02-22T23:51:59.043Z,94788.91
2023-02-22T23:54:28.408Z,94796.17
2023-02-22T23:56:54.777Z,94800.97
2023-02-22T23:59:21.122Z,94796.78
